Time;durP1;ratioP1;P1;durP2;ratioP2;P2;SDS_P1;SDS_P2;PMS_P1;PMS_P2;Temp;Humidity;BMP_temperature;BMP_pressure;BME280_temperature;BME280_humidity;BME280_pressure;Samples;Min_cycle;Max_cycle;Signal;HPM_P1;HPM_P2
2022/10/31 00:01:08;;;;;;;33.90;22.33;;;11.00;99.90;;;;;;5054153;28;20029;-72
2022/10/31 00:03:34;;;;;;;30.30;21.15;;;10.90;99.90;;;;;;5036591;28;20033;-72
2022/10/31 00:06:01;;;;;;;26.15;18.58;;;10.90;99.90;;;;;;5053503;28;20029;-72
2022/10/31 00:08:27;;;;;;;29.15;19.80;;;10.90;99.90;;;;;;5054377;28;20021;-72
2022/10/31 00:10:52;;;;;;;26.10;20.23;;;10.90;99.90;;;;;;5053360;28;20025;-73
2022/10/31 00:13:18;;;;;;;30.45;20.85;;;11.00;99.90;;;;;;5053947;28;20040;-72
2022/10/31 00:15:43;;;;;;;29.35;21.25;;;11.00;99.90;;;;;;5053847;28;20028;-73
2022/10/31 00:18:09;;;;;;;31.48;22.40;;;11.10;99.90;;;;;;5054595;28;20027;-72
2022/10/31 00:20:35;;;;;;;33.17;22.25;;;11.20;99.90;;;;;;5054251;28;20055;-72
2022/10/31 00:23:02;;;;;;;28.30;21.52;;;11.20;99.90;;;;;;5053599;28;20029;-72
2022/10/31 00:25:29;;;;;;;31.80;20.88;;;11.20;99.90;;;;;;5053597;28;20024;-72
2022/10/31 00:27:54;;;;;;;36.47;21.15;;;11.30;99.90;;;;;;5054085;28;20419;-72
2022/10/31 00:30:20;;;;;;;33.47;23.50;;;11.30;99.90;;;;;;5053849;28;20083;-72
2022/10/31 00:32:46;;;;;;;33.50;20.90;;;11.20;99.90;;;;;;5053304;28;20444;-72
2022/10/31 00:35:11;;;;;;;30.40;20.95;;;11.30;99.90;;;;;;5053739;28;20488;-72
2022/10/31 00:37:37;;;;;;;32.10;21.65;;;11.30;99.90;;;;;;5065982;28;20024;-72
2022/10/31 00:40:03;;;;;;;31.33;21.60;;;11.30;99.90;;;;;;5060786;28;20032;-72
2022/10/31 00:42:28;;;;;;;26.92;20.35;;;11.20;99.90;;;;;;5066314;28;20036;-72
2022/10/31 00:44:54;;;;;;;27.50;19.38;;;11.20;99.90;;;;;;5056329;28;20021;-72
2022/10/31 00:47:19;;;;;;;27.85;19.77;;;11.10;99.90;;;;;;5064871;28;20021;-72
2022/10/31 00:49:45;;;;;;;31.98;20.50;;;11.10;99.90;;;;;;5056008;28;20368;-72
2022/10/31 00:52:10;;;;;;;29.67;18.50;;;11.00;99.90;;;;;;5070828;28;20020;-72
2022/10/31 00:54:36;;;;;;;27.73;20.55;;;10.90;99.90;;;;;;5072651;28;20102;-72
2022/10/31 00:57:01;;;;;;;34.22;21.42;;;10.90;99.90;;;;;;5053377;28;20049;-72
2022/10/31 00:59:27;;;;;;;33.42;21.00;;;10.90;99.90;;;;;;5068135;28;20024;-72
2022/10/31 01:01:52;;;;;;;32.83;21.50;;;11.00;99.90;;;;;;5073958;28;20103;-72
2022/10/31 01:04:18;;;;;;;32.97;20.00;;;11.10;99.90;;;;;;5072945;28;20137;-73
2022/10/31 01:06:43;;;;;;;34.70;22.50;;;11.10;99.90;;;;;;5053141;28;20468;-72
2022/10/31 01:09:09;;;;;;;33.08;21.38;;;11.20;99.90;;;;;;5053260;28;20104;-72
2022/10/31 01:11:34;;;;;;;33.78;21.30;;;11.20;99.90;;;;;;5053261;28;20099;-72
2022/10/31 01:14:00;;;;;;;36.38;21.17;;;11.30;99.90;;;;;;5067451;28;20025;-72
2022/10/31 01:16:27;;;;;;;30.95;20.25;;;11.30;99.90;;;;;;5062083;28;20515;-72
2022/10/31 01:18:52;;;;;;;25.77;18.60;;;11.40;99.90;;;;;;5065033;28;20059;-72
2022/10/31 01:21:21;;;;;;;28.52;20.92;;;11.40;99.90;;;;;;5055308;28;20079;-72
2022/10/31 01:23:46;;;;;;;36.08;22.33;;;11.40;99.90;;;;;;5057464;28;20040;-72
2022/10/31 01:26:19;;;;;;;31.23;21.38;;;11.40;99.90;;;;;;5070265;28;20099;-72
2022/10/31 01:28:53;;;;;;;45.22;27.17;;;11.40;99.90;;;;;;5056893;28;20075;-72
2022/10/31 01:31:21;;;;;;;43.25;24.52;;;11.50;99.90;;;;;;5058173;28;20102;-72
2022/10/31 01:33:47;;;;;;;38.95;23.15;;;11.40;99.90;;;;;;5068356;28;20058;-72
2022/10/31 01:36:22;;;;;;;43.22;25.67;;;11.40;99.90;;;;;;5063645;28;20073;-72
2022/10/31 01:38:50;;;;;;;37.28;24.08;;;11.40;99.90;;;;;;5064717;28;20032;-72
2022/10/31 01:41:19;;;;;;;44.15;27.60;;;11.30;99.90;;;;;;5074650;28;20401;-72
2022/10/31 01:43:51;;;;;;;41.47;25.60;;;11.30;99.90;;;;;;5076069;28;20112;-73
2022/10/31 01:46:29;;;;;;;47.42;27.63;;;11.20;99.90;;;;;;5064512;28;20052;-72
2022/10/31 01:48:57;;;;;;;48.33;26.58;;;11.20;99.90;;;;;;5074788;28;20025;-72
2022/10/31 01:51:28;;;;;;;44.28;25.85;;;11.10;99.90;;;;;;5063116;28;20025;-73
2022/10/31 01:53:57;;;;;;;59.15;28.95;;;11.00;99.90;;;;;;5057124;28;20104;-72
2022/10/31 01:56:23;;;;;;;63.80;31.63;;;10.90;99.90;;;;;;5073333;28;20106;-72
2022/10/31 01:58:49;;;;;;;50.63;28.23;;;10.80;99.90;;;;;;5076045;28;20035;-72
2022/10/31 02:01:16;;;;;;;90.07;36.95;;;10.70;99.90;;;;;;5060244;28;20017;-72
2022/10/31 02:03:42;;;;;;;83.22;41.55;;;10.90;99.90;;;;;;5069882;28;20368;-72
2022/10/31 02:06:17;;;;;;;101.90;43.85;;;11.00;99.90;;;;;;5057503;28;20037;-72
2022/10/31 02:08:43;;;;;;;141.52;55.28;;;11.20;99.90;;;;;;5067274;28;20052;-72
2022/10/31 02:11:10;;;;;;;140.38;54.20;;;11.50;99.90;;;;;;5059927;28;20036;-72
2022/10/31 02:13:36;;;;;;;152.60;56.10;;;11.80;99.90;;;;;;5078221;28;20024;-73
2022/10/31 02:16:02;;;;;;;152.98;58.67;;;12.00;99.90;;;;;;5075673;28;20145;-72
2022/10/31 02:18:30;;;;;;;160.13;59.08;;;12.20;99.90;;;;;;5056661;28;20025;-72
2022/10/31 02:20:55;;;;;;;155.77;58.67;;;12.40;99.90;;;;;;5073368;28;20016;-72
2022/10/31 02:23:47;;;;;;;177.82;62.42;;;12.40;99.90;;;;;;5061760;28;20017;-72
2022/10/31 02:26:24;;;;;;;150.57;58.20;;;12.50;99.90;;;;;;5075963;28;20024;-72
2022/10/31 02:28:53;;;;;;;115.97;49.05;;;12.40;99.90;;;;;;5063211;28;20025;-72
2022/10/31 02:31:29;;;;;;;108.25;43.63;;;12.30;99.90;;;;;;5063353;28;20021;-72
2022/10/31 02:34:12;;;;;;;88.15;39.75;;;12.00;99.90;;;;;;5063667;28;20033;-72
2022/10/31 02:36:49;;;;;;;95.93;38.63;;;11.70;99.90;;;;;;5056709;28;20025;-72
2022/10/31 02:39:26;;;;;;;78.35;34.58;;;11.50;99.90;;;;;;5072461;28;20376;-72
2022/10/31 02:42:14;;;;;;;68.68;34.55;;;11.30;99.90;;;;;;5063141;28;20547;-72
2022/10/31 02:44:51;;;;;;;70.32;33.03;;;11.10;99.90;;;;;;5055958;28;20112;-72
2022/10/31 02:47:22;;;;;;;63.75;30.33;;;11.00;99.90;;;;;;5067909;28;20024;-72
2022/10/31 02:50:00;;;;;;;76.82;32.15;;;10.80;99.90;;;;;;5055973;28;20496;-72
2022/10/31 02:52:27;;;;;;;90.47;36.15;;;10.80;99.90;;;;;;5058155;28;20384;-72
2022/10/31 02:54:53;;;;;;;128.07;43.50;;;10.80;99.90;;;;;;5061129;28;20036;-72
2022/10/31 02:57:25;;;;;;;120.55;42.65;;;11.00;99.90;;;;;;5057418;28;20016;-73
2022/10/31 02:59:55;;;;;;;136.25;45.90;;;11.30;99.90;;;;;;5073090;28;20048;-72
2022/10/31 03:02:59;;;;;;;144.98;45.53;;;11.60;99.90;;;;;;5075545;28;20480;-72
2022/10/31 03:05:54;;;;;;;156.98;45.15;;;11.70;99.90;;;;;;5045081;28;20040;-72
2022/10/31 03:08:50;;;;;;;127.05;41.38;;;11.70;99.90;;;;;;5062149;28;20023;-72
2022/10/31 03:11:20;;;;;;;122.20;42.70;;;11.80;99.90;;;;;;5075796;28;20464;-72
2022/10/31 03:13:56;;;;;;;141.15;45.15;;;11.80;99.90;;;;;;5075133;28;20499;-72
2022/10/31 03:16:36;;;;;;;117.35;41.78;;;11.80;99.90;;;;;;5074973;28;20036;-72
2022/10/31 03:19:11;;;;;;;123.30;40.17;;;11.80;99.90;;;;;;5068151;28;20025;-72
2022/10/31 03:21:44;;;;;;;105.53;36.63;;;11.70;99.90;;;;;;5055302;28;20029;-72
2022/10/31 03:24:12;;;;;;;95.50;31.65;;;11.50;99.90;;;;;;5058883;28;20560;-72
2022/10/31 03:26:42;;;;;;;64.82;29.25;;;11.30;99.90;;;;;;5075111;28;20050;-71
2022/10/31 03:29:11;;;;;;;67.88;27.20;;;11.10;99.90;;;;;;5075079;28;20052;-72
2022/10/31 03:31:47;;;;;;;74.60;29.27;;;10.90;99.90;;;;;;5070863;28;20484;-72
2022/10/31 03:34:15;;;;;;;66.45;27.73;;;10.70;99.90;;;;;;5075078;28;20036;-72
2022/10/31 03:36:42;;;;;;;65.97;27.65;;;10.60;99.90;;;;;;5063775;28;20021;-72
2022/10/31 03:39:13;;;;;;;71.53;27.58;;;10.50;99.90;;;;;;5072061;28;20407;-72
2022/10/31 03:41:43;;;;;;;63.03;24.92;;;10.40;99.90;;;;;;5055172;28;20028;-72
2022/10/31 03:44:14;;;;;;;59.55;24.80;;;10.30;99.90;;;;;;5054879;28;20021;-72
2022/10/31 03:46:42;;;;;;;64.50;27.75;;;10.20;99.90;;;;;;5056578;28;20017;-72
2022/10/31 03:49:08;;;;;;;52.08;21.95;;;10.20;99.90;;;;;;5054250;28;20029;-72
2022/10/31 03:51:49;;;;;;;38.75;19.35;;;10.10;99.90;;;;;;5065266;28;20074;-72
2022/10/31 03:54:18;;;;;;;37.65;19.50;;;10.00;99.90;;;;;;5074362;28;20024;-72
2022/10/31 03:57:08;;;;;;;35.90;18.30;;;10.00;99.90;;;;;;5070890;28;20039;-72
2022/10/31 03:59:37;;;;;;;37.80;17.85;;;10.00;99.90;;;;;;5074354;28;20430;-72
2022/10/31 04:02:07;;;;;;;34.90;17.65;;;9.90;99.90;;;;;;5066107;28;20386;-72
2022/10/31 04:04:35;;;;;;;42.20;18.42;;;9.90;99.90;;;;;;5054145;28;20107;-72
2022/10/31 04:07:02;;;;;;;66.28;24.50;;;9.90;99.90;;;;;;5056408;28;20027;-72
2022/10/31 04:09:31;;;;;;;35.10;17.27;;;10.00;99.90;;;;;;5061682;28;20016;-72
2022/10/31 04:12:00;;;;;;;24.85;14.63;;;10.00;99.90;;;;;;5074060;28;20028;-72
2022/10/31 04:14:29;;;;;;;62.42;16.80;;;9.90;99.90;;;;;;5071130;28;20020;-72
2022/10/31 04:16:55;;;;;;;26.17;13.18;;;9.90;99.90;;;;;;5085538;23;20442;-68
2022/10/31 04:19:21;;;;;;;22.17;12.73;;;9.90;99.90;;;;;;5073634;28;20027;-68
2022/10/31 04:21:46;;;;;;;25.02;13.55;;;9.80;99.90;;;;;;5068971;28;20086;-68
2022/10/31 04:24:12;;;;;;;28.10;14.48;;;9.70;99.90;;;;;;5053432;28;20021;-68
2022/10/31 04:26:37;;;;;;;23.13;13.93;;;9.60;99.90;;;;;;5053098;28;20495;-67
2022/10/31 04:29:03;;;;;;;25.65;14.20;;;9.40;99.90;;;;;;5056013;28;20021;-68
2022/10/31 04:31:28;;;;;;;29.30;9.07;;;9.40;99.90;;;;;;5053568;28;20537;-68
2022/10/31 04:33:54;;;;;;;10.63;7.45;;;9.30;99.90;;;;;;5065816;28;20438;-68
2022/10/31 04:36:20;;;;;;;11.30;8.00;;;9.20;99.90;;;;;;5072886;28;20025;-69
2022/10/31 04:38:45;;;;;;;15.13;8.07;;;9.20;99.90;;;;;;5070524;28;20082;-68
2022/10/31 04:41:11;;;;;;;17.90;8.68;;;9.10;99.90;;;;;;5073782;28;20070;-68
2022/10/31 04:43:36;;;;;;;21.42;9.32;;;9.10;99.90;;;;;;5070097;28;20388;-68
2022/10/31 04:46:02;;;;;;;15.50;8.68;;;9.10;99.90;;;;;;5072135;28;20028;-68
2022/10/31 04:48:28;;;;;;;55.95;10.10;;;9.10;99.90;;;;;;5072693;28;20032;-68
2022/10/31 04:50:59;;;;;;;19.00;10.10;;;9.10;99.90;;;;;;5057527;28;20032;-68
2022/10/31 04:53:24;;;;;;;15.55;9.93;;;9.20;99.90;;;;;;5053574;28;20064;-68
2022/10/31 04:55:50;;;;;;;14.23;7.28;;;9.20;99.90;;;;;;5062390;28;20052;-68
2022/10/31 04:58:15;;;;;;;73.22;11.15;;;9.20;99.90;;;;;;5073396;28;20093;-68
2022/10/31 05:00:41;;;;;;;12.93;6.88;;;9.10;99.90;;;;;;5072752;28;20448;-68
2022/10/31 05:03:06;;;;;;;7.38;4.50;;;9.00;99.90;;;;;;5073388;28;20021;-68
2022/10/31 05:05:32;;;;;;;9.02;5.35;;;9.00;99.90;;;;;;5073031;28;20020;-69
2022/10/31 05:07:57;;;;;;;10.43;5.20;;;8.90;99.90;;;;;;5073410;28;20046;-68
2022/10/31 05:10:27;;;;;;;5.25;4.10;;;8.90;99.90;;;;;;5072637;28;20021;-68
2022/10/31 05:12:55;;;;;;;6.32;4.07;;;8.90;99.90;;;;;;5072916;28;20051;-68
2022/10/31 05:15:22;;;;;;;6.07;4.25;;;8.90;99.90;;;;;;5072687;28;20472;-68
2022/10/31 05:17:48;;;;;;;5.00;3.85;;;8.80;99.90;;;;;;5072925;28;20044;-68
2022/10/31 05:20:15;;;;;;;4.50;3.90;;;8.70;99.90;;;;;;5073022;28;20094;-68
2022/10/31 05:22:50;;;;;;;44.83;11.13;;;8.60;99.90;;;;;;5072666;28;20032;-68
2022/10/31 05:25:16;;;;;;;19.38;9.48;;;8.70;99.90;;;;;;5073369;28;20013;-68
2022/10/31 05:27:44;;;;;;;110.22;13.65;;;8.80;99.90;;;;;;5072302;28;20028;-68
2022/10/31 05:30:11;;;;;;;22.08;10.23;;;8.90;99.90;;;;;;5072979;28;20016;-68
2022/10/31 05:32:41;;;;;;;13.18;9.40;;;8.90;99.90;;;;;;5072961;28;20120;-68
2022/10/31 05:35:12;;;;;;;204.05;16.67;;;8.90;99.90;;;;;;5072085;28;20147;-68
2022/10/31 05:37:38;;;;;;;71.13;14.23;;;9.10;99.90;;;;;;5072848;28;20025;-68
2022/10/31 05:40:06;;;;;;;258.23;17.55;;;9.40;99.90;;;;;;5072907;28;20035;-68
2022/10/31 05:42:32;;;;;;;31.52;11.23;;;9.50;99.90;;;;;;5072497;28;20029;-68
2022/10/31 05:44:57;;;;;;;12.48;10.55;;;9.40;99.90;;;;;;5072878;28;20017;-69
2022/10/31 05:47:23;;;;;;;9.90;8.82;;;9.40;99.90;;;;;;5072116;28;20380;-69
2022/10/31 05:49:49;;;;;;;15.43;8.85;;;9.30;99.90;;;;;;5072806;28;20028;-69
2022/10/31 05:52:14;;;;;;;60.25;10.00;;;9.20;99.90;;;;;;5072851;28;20029;-69
2022/10/31 05:54:40;;;;;;;23.75;10.23;;;9.10;99.90;;;;;;5072031;28;20032;-69
2022/10/31 05:57:06;;;;;;;64.18;14.65;;;9.10;99.90;;;;;;5072725;28;20388;-69
2022/10/31 05:59:31;;;;;;;19.38;12.00;;;9.20;99.90;;;;;;5072535;28;20079;-69
2022/10/31 06:01:57;;;;;;;126.57;14.38;;;9.20;99.90;;;;;;5072704;28;20074;-69
2022/10/31 06:04:22;;;;;;;24.40;11.57;;;9.10;99.90;;;;;;5072743;28;20086;-69
2022/10/31 06:06:48;;;;;;;167.65;15.77;;;9.10;99.90;;;;;;5072466;28;20024;-69
2022/10/31 06:09:13;;;;;;;72.05;13.00;;;9.10;99.90;;;;;;5074924;28;20164;-69
2022/10/31 06:11:39;;;;;;;12.75;9.13;;;9.20;99.90;;;;;;5076515;28;20039;-69
2022/10/31 06:14:05;;;;;;;11.45;9.18;;;9.30;99.90;;;;;;5076170;28;20386;-69
2022/10/31 06:16:30;;;;;;;19.00;9.40;;;9.30;99.90;;;;;;5075709;28;20563;-69
2022/10/31 06:18:56;;;;;;;13.95;9.95;;;9.40;99.90;;;;;;5076066;28;20070;-69
2022/10/31 06:21:21;;;;;;;58.20;10.48;;;9.50;99.90;;;;;;5075365;28;20058;-69
2022/10/31 06:23:47;;;;;;;176.93;16.25;;;9.50;99.90;;;;;;5075697;28;20025;-69
2022/10/31 06:26:12;;;;;;;11.90;9.65;;;9.50;99.90;;;;;;5076147;28;20021;-69
2022/10/31 06:28:38;;;;;;;18.83;10.93;;;9.50;99.90;;;;;;5075945;28;20017;-69
2022/10/31 06:31:04;;;;;;;15.65;12.07;;;9.60;99.90;;;;;;5075842;28;20020;-69
2022/10/31 06:33:29;;;;;;;49.83;15.00;;;9.70;99.90;;;;;;5075002;28;20032;-69
2022/10/31 06:35:55;;;;;;;21.65;12.55;;;9.70;99.90;;;;;;5076017;28;20024;-69
2022/10/31 06:38:20;;;;;;;30.48;13.60;;;9.80;99.90;;;;;;5075519;28;20056;-69
2022/10/31 06:40:46;;;;;;;171.35;20.17;;;9.90;99.90;;;;;;5075651;28;20040;-69
2022/10/31 06:43:12;;;;;;;51.70;17.67;;;10.00;99.90;;;;;;5071929;28;20025;-69
2022/10/31 06:45:38;;;;;;;30.15;15.27;;;10.00;99.90;;;;;;5072435;28;20112;-69
2022/10/31 06:48:03;;;;;;;25.05;15.52;;;10.00;99.90;;;;;;5054989;28;20105;-69
2022/10/31 06:50:29;;;;;;;20.67;13.63;;;10.00;99.90;;;;;;5068573;28;20028;-69
2022/10/31 06:52:57;;;;;;;34.42;17.08;;;10.00;99.90;;;;;;5060480;28;20035;-68
2022/10/31 06:55:24;;;;;;;22.10;14.60;;;10.10;99.90;;;;;;5068591;28;20036;-68
2022/10/31 06:57:57;;;;;;;22.25;14.30;;;10.10;99.90;;;;;;5064164;28;20027;-69
2022/10/31 07:00:23;;;;;;;22.27;15.02;;;10.10;99.90;;;;;;5061759;28;20025;-68
2022/10/31 07:03:11;;;;;;;80.05;16.48;;;10.20;99.90;;;;;;5054809;28;20051;-69
2022/10/31 07:05:37;;;;;;;29.55;16.10;;;10.20;99.90;;;;;;5055590;28;20029;-69
2022/10/31 07:08:06;;;;;;;104.10;20.25;;;10.30;99.90;;;;;;5054834;28;20025;-69
2022/10/31 07:10:33;;;;;;;50.90;16.52;;;10.50;99.90;;;;;;5054134;28;20078;-69
2022/10/31 07:13:03;;;;;;;90.95;16.65;;;10.60;99.90;;;;;;5055025;28;20387;-68
2022/10/31 07:15:37;;;;;;;35.65;19.88;;;10.80;99.90;;;;;;5066156;28;20048;-68
2022/10/31 07:18:05;;;;;;;32.80;16.25;;;10.90;99.90;;;;;;5062845;28;20160;-68
2022/10/31 07:20:31;;;;;;;34.95;18.25;;;11.00;99.90;;;;;;5074605;28;20032;-69
2022/10/31 07:22:57;;;;;;;29.38;15.75;;;11.10;99.90;;;;;;5063060;28;20029;-69
2022/10/31 07:25:23;;;;;;;32.10;15.32;;;11.10;99.90;;;;;;5054557;28;20497;-69
2022/10/31 07:27:49;;;;;;;37.97;17.08;;;11.20;99.90;;;;;;5054634;28;20033;-69
2022/10/31 07:30:16;;;;;;;41.95;17.92;;;11.20;99.90;;;;;;5074709;28;20385;-69
2022/10/31 07:32:46;;;;;;;31.83;14.15;;;11.30;99.90;;;;;;5072755;28;20533;-68
2022/10/31 07:35:15;;;;;;;46.72;19.40;;;11.40;99.90;;;;;;5054502;28;20041;-69
2022/10/31 07:37:41;;;;;;;35.72;15.75;;;11.40;99.90;;;;;;5054075;28;20492;-68
2022/10/31 07:40:08;;;;;;;44.58;15.98;;;11.50;99.90;;;;;;5067838;28;20029;-69
2022/10/31 07:42:42;;;;;;;56.92;17.30;;;11.50;99.90;;;;;;5074410;28;20036;-69
2022/10/31 07:45:10;;;;;;;44.30;17.67;;;11.60;99.90;;;;;;5056048;28;20099;-68
2022/10/31 07:47:39;;;;;;;40.65;16.20;;;11.60;99.90;;;;;;5068809;28;20442;-68
2022/10/31 07:50:05;;;;;;;43.63;14.55;;;11.60;99.90;;;;;;5063855;28;20017;-69
2022/10/31 07:52:31;;;;;;;57.40;17.92;;;11.70;99.90;;;;;;5073350;28;20028;-68
2022/10/31 07:54:56;;;;;;;68.53;17.95;;;11.70;99.90;;;;;;5073112;28;20051;-68
2022/10/31 07:57:22;;;;;;;49.88;18.35;;;11.80;99.90;;;;;;5061521;28;20431;-69
2022/10/31 07:59:47;;;;;;;41.28;15.55;;;11.80;99.90;;;;;;5068205;28;20051;-68
2022/10/31 08:02:13;;;;;;;47.08;16.85;;;12.00;99.90;;;;;;5062245;28;20074;-69
2022/10/31 08:04:38;;;;;;;51.92;18.45;;;12.00;99.90;;;;;;5063217;28;20038;-68
2022/10/31 08:07:04;;;;;;;54.08;18.38;;;12.00;99.90;;;;;;5062409;28;20107;-68
2022/10/31 08:09:29;;;;;;;40.08;16.60;;;12.00;99.90;;;;;;5073798;28;20056;-69
2022/10/31 08:11:55;;;;;;;46.25;17.98;;;12.10;99.90;;;;;;5074117;28;20028;-66
2022/10/31 08:14:22;;;;;;;35.28;15.70;;;12.10;99.90;;;;;;5061952;28;20556;-68
2022/10/31 08:16:47;;;;;;;42.53;16.77;;;12.20;99.90;;;;;;5065438;28;20037;-68
2022/10/31 08:19:13;;;;;;;44.50;16.73;;;12.20;99.90;;;;;;5060291;28;20031;-69
2022/10/31 08:21:38;;;;;;;36.25;15.55;;;12.30;99.90;;;;;;5067011;28;20091;-69
2022/10/31 08:24:05;;;;;;;44.03;18.10;;;12.40;99.90;;;;;;5063479;28;20023;-67
2022/10/31 08:26:30;;;;;;;37.28;16.15;;;12.50;99.90;;;;;;5061668;28;20130;-67
2022/10/31 08:28:56;;;;;;;53.67;17.02;;;12.60;99.90;;;;;;5063960;28;20017;-68
2022/10/31 08:31:22;;;;;;;49.25;16.42;;;12.70;99.90;;;;;;5061062;28;20032;-68
2022/10/31 08:33:48;;;;;;;37.20;14.20;;;12.80;99.90;;;;;;5057966;28;20050;-68
2022/10/31 08:36:14;;;;;;;28.77;13.25;;;12.90;99.90;;;;;;5064457;28;20090;-68
2022/10/31 08:38:39;;;;;;;42.40;16.65;;;13.00;99.90;;;;;;5064370;28;20044;-68
2022/10/31 08:41:05;;;;;;;41.58;14.23;;;13.20;99.90;;;;;;5063938;28;20033;-68
2022/10/31 08:43:30;;;;;;;39.50;14.90;;;13.30;99.90;;;;;;5057904;28;20025;-68
2022/10/31 08:45:56;;;;;;;50.92;14.82;;;13.20;99.90;;;;;;5059945;28;20024;-68
2022/10/31 08:48:21;;;;;;;38.00;15.32;;;13.10;99.90;;;;;;5065181;28;20028;-68
2022/10/31 08:50:47;;;;;;;42.55;15.38;;;12.90;99.90;;;;;;5062319;28;20060;-68
2022/10/31 08:53:18;;;;;;;41.28;15.13;;;12.90;99.90;;;;;;5065980;28;20017;-69
2022/10/31 08:55:45;;;;;;;53.30;18.30;;;12.90;99.90;;;;;;5057525;28;20504;-68
2022/10/31 08:58:19;;;;;;;43.72;16.20;;;12.90;99.90;;;;;;5058719;28;20024;-69
2022/10/31 09:00:46;;;;;;;;;;;13.00;99.90;;;;;;5053514;28;20032;-69
2022/10/31 09:03:26;;;;;;;55.42;18.92;;;13.00;99.90;;;;;;5052937;28;19909;-70
2022/10/31 09:05:56;;;;;;;56.28;19.83;;;13.10;99.90;;;;;;5055726;28;20025;-70
2022/10/31 09:08:22;;;;;;;39.92;16.15;;;13.20;99.90;;;;;;5058437;28;20025;-69
2022/10/31 09:10:48;;;;;;;55.83;19.70;;;13.30;99.90;;;;;;5061863;28;20021;-70
2022/10/31 09:13:16;;;;;;;51.70;19.23;;;13.40;99.90;;;;;;5061650;28;20388;-70
2022/10/31 09:15:44;;;;;;;47.00;18.13;;;13.40;99.90;;;;;;5051520;28;20025;-70
2022/10/31 09:18:11;;;;;;;46.75;19.35;;;13.40;99.90;;;;;;5052640;28;20037;-70
2022/10/31 09:20:38;;;;;;;54.22;21.48;;;13.60;99.90;;;;;;5050805;28;20492;-70
2022/10/31 09:23:15;;;;;;;61.80;21.17;;;13.70;99.90;;;;;;5052747;28;20029;-70
2022/10/31 09:25:42;;;;;;;60.55;22.20;;;13.90;99.90;;;;;;5052640;28;20021;-69
2022/10/31 09:28:12;;;;;;;68.60;22.30;;;14.00;99.90;;;;;;5052783;28;20028;-69
2022/10/31 09:30:38;;;;;;;60.30;22.63;;;14.10;99.90;;;;;;5052592;28;20029;-69
2022/10/31 09:33:09;;;;;;;56.97;21.58;;;14.30;99.90;;;;;;5052248;28;20035;-70
2022/10/31 09:35:35;;;;;;;58.85;20.52;;;14.50;99.90;;;;;;5053205;28;20388;-71
2022/10/31 09:38:03;;;;;;;56.10;20.38;;;14.50;99.90;;;;;;5052615;28;20029;-71
2022/10/31 09:40:34;;;;;;;43.25;18.40;;;14.50;99.90;;;;;;5052943;28;20404;-70
2022/10/31 09:43:15;;;;;;;41.03;17.00;;;14.40;99.90;;;;;;5054223;28;20028;-69
2022/10/31 09:46:04;;;;;;;77.00;20.13;;;14.40;99.90;;;;;;5056259;28;20384;-69
2022/10/31 09:48:33;;;;;;;41.40;17.05;;;14.30;99.90;;;;;;5056503;28;20029;-70
2022/10/31 09:51:20;;;;;;;52.80;17.67;;;14.40;99.90;;;;;;5056392;28;20206;-70
2022/10/31 09:54:01;;;;;;;42.80;17.17;;;14.30;99.90;;;;;;5057083;28;20032;-69
2022/10/31 09:56:28;;;;;;;48.15;16.55;;;14.20;99.90;;;;;;5070932;28;20054;-69
2022/10/31 09:58:58;;;;;;;40.75;16.70;;;14.30;99.90;;;;;;5074399;28;20094;-69
2022/10/31 10:01:37;;;;;;;49.67;15.77;;;14.20;99.90;;;;;;5070438;28;20399;-69
2022/10/31 10:04:10;;;;;;;39.13;15.43;;;14.40;99.90;;;;;;5056470;28;20099;-70
2022/10/31 10:06:43;;;;;;;38.10;12.98;;;14.40;99.90;;;;;;5058496;28;20025;-70
2022/10/31 10:09:09;;;;;;;57.03;13.93;;;14.60;99.90;;;;;;5056689;28;20407;-70
2022/10/31 10:12:05;;;;;;;33.60;10.93;;;14.60;99.90;;;;;;5065657;28;20556;-69
2022/10/31 10:14:53;;;;;;;31.80;12.43;;;14.80;99.90;;;;;;5068548;28;20021;-69
2022/10/31 10:17:36;;;;;;;41.90;12.05;;;14.80;99.90;;;;;;5097966;22;20040;-71
2022/10/31 10:20:01;;;;;;;40.20;13.23;;;14.60;99.90;;;;;;5075918;28;20060;-71
2022/10/31 10:22:42;;;;;;;35.65;12.50;;;14.90;99.90;;;;;;5074741;28;20068;-71
2022/10/31 10:25:23;;;;;;;42.25;13.50;;;14.90;99.90;;;;;;5075193;28;20454;-70
2022/10/31 10:28:27;;;;;;;42.88;9.75;;;14.90;99.90;;;;;;5064188;28;20047;-71
2022/10/31 10:30:58;;;;;;;51.78;9.52;;;14.90;99.90;;;;;;5073864;28;20051;-71
2022/10/31 10:33:31;;;;;;;24.15;5.85;;;14.80;99.90;;;;;;5075617;28;20036;-71
2022/10/31 10:36:03;;;;;;;22.60;4.88;;;14.70;99.90;;;;;;5075580;28;20021;-71
2022/10/31 10:38:37;;;;;;;17.77;4.22;;;14.90;99.90;;;;;;5057252;28;20507;-71
2022/10/31 10:41:10;;;;;;;26.80;3.97;;;14.70;99.90;;;;;;5075104;28;20483;-71
2022/10/31 10:43:37;;;;;;;39.00;4.15;;;14.80;99.90;;;;;;5066002;28;20108;-71
2022/10/31 10:49:19;;;;;;;27.38;4.43;;;14.60;99.90;;;;;;5074401;28;20055;-71
2022/10/31 10:51:59;;;;;;;18.92;4.18;;;14.50;99.90;;;;;;5075112;28;20460;-71
2022/10/31 10:54:52;;;;;;;27.00;4.18;;;14.70;99.90;;;;;;5073870;28;20067;-71
2022/10/31 10:57:32;;;;;;;26.20;3.78;;;14.90;99.90;;;;;;5075160;28;20032;-71
2022/10/31 11:00:01;;;;;;;21.05;3.30;;;15.00;99.90;;;;;;5074957;28;20096;-71
2022/10/31 11:02:30;;;;;;;17.92;3.53;;;15.00;99.90;;;;;;5074492;28;20025;-71
2022/10/31 11:04:58;;;;;;;21.23;3.63;;;15.20;99.90;;;;;;5072890;28;20036;-71
2022/10/31 11:07:24;;;;;;;17.77;2.85;;;15.30;99.90;;;;;;5067897;28;20024;-71
2022/10/31 11:09:49;;;;;;;19.27;2.53;;;15.40;99.90;;;;;;5069874;28;20016;-71
2022/10/31 11:12:26;;;;;;;13.48;2.67;;;15.30;99.90;;;;;;5056759;28;20075;-71
2022/10/31 11:14:55;;;;;;;20.83;3.78;;;15.50;99.90;;;;;;5059054;28;20108;-71
2022/10/31 11:17:30;;;;;;;17.25;3.70;;;15.70;99.90;;;;;;5074497;28;20034;-71
2022/10/31 11:20:30;;;;;;;24.63;3.05;;;15.70;99.90;;;;;;5054976;28;20059;-71
2022/10/31 11:23:05;;;;;;;9.88;1.90;;;15.70;99.90;;;;;;5063102;28;20025;-71
2022/10/31 11:25:31;;;;;;;21.35;2.88;;;15.80;99.90;;;;;;5074423;28;20035;-72
2022/10/31 11:28:08;;;;;;;18.55;2.42;;;15.90;99.90;;;;;;5071956;28;20541;-73
2022/10/31 11:30:47;;;;;;;14.73;1.95;;;15.80;99.90;;;;;;5063160;28;20071;-73
2022/10/31 11:33:30;;;;;;;17.60;3.67;;;16.00;99.90;;;;;;5058917;28;20020;-71
2022/10/31 11:35:56;;;;;;;12.88;2.33;;;16.10;99.90;;;;;;5066442;28;20024;-71
2022/10/31 11:38:26;;;;;;;14.40;3.15;;;16.20;99.90;;;;;;5063084;28;20174;-71
2022/10/31 11:40:58;;;;;;;16.15;2.45;;;16.30;99.90;;;;;;5059781;28;20054;-71
2022/10/31 11:43:24;;;;;;;18.50;3.85;;;16.40;99.90;;;;;;5043081;28;20028;-71
2022/10/31 11:45:50;;;;;;;27.90;4.25;;;16.60;99.90;;;;;;5046527;28;20054;-71
2022/10/31 11:48:18;;;;;;;17.38;3.20;;;16.50;99.90;;;;;;5062289;28;20021;-72
2022/10/31 11:50:57;;;;;;;12.38;2.25;;;16.50;99.90;;;;;;5061789;28;20483;-72
2022/10/31 11:53:33;;;;;;;16.88;2.45;;;16.50;99.90;;;;;;5046422;28;20055;-72
2022/10/31 11:56:14;;;;;;;18.63;3.55;;;16.30;99.90;;;;;;5067780;28;20028;-72
2022/10/31 11:58:40;;;;;;;17.67;3.05;;;16.20;99.90;;;;;;5061195;28;20025;-72
2022/10/31 12:01:19;;;;;;;36.35;5.10;;;16.20;99.90;;;;;;5063686;28;20016;-72
2022/10/31 12:04:01;;;;;;;12.60;3.30;;;16.20;99.90;;;;;;5064872;28;20079;-71
2022/10/31 12:06:36;;;;;;;18.90;2.92;;;16.20;99.90;;;;;;5061598;28;20077;-71
2022/10/31 12:09:02;;;;;;;23.42;3.42;;;16.30;99.90;;;;;;5062878;28;20017;-71
2022/10/31 12:11:34;;;;;;;14.73;3.45;;;16.30;99.90;;;;;;5064306;28;20422;-71
2022/10/31 12:14:21;;;;;;;23.73;3.38;;;16.20;99.90;;;;;;5065278;28;20101;-73
2022/10/31 12:17:02;;;;;;;17.70;4.03;;;16.20;99.90;;;;;;5060595;28;20029;-71
2022/10/31 12:19:59;;;;;;;22.10;3.97;;;16.20;99.90;;;;;;5063734;28;20071;-71
2022/10/31 12:22:37;;;;;;;19.10;3.90;;;16.20;99.90;;;;;;5056164;28;20074;-72
2022/10/31 12:25:41;;;;;;;18.27;3.50;;;16.20;99.90;;;;;;5059144;28;20032;-71
2022/10/31 12:28:18;;;;;;;11.75;2.83;;;15.90;99.90;;;;;;5059691;28;20020;-72
2022/10/31 12:31:20;;;;;;;20.27;2.72;;;15.90;99.90;;;;;;5065314;28;20029;-72
2022/10/31 12:34:18;;;;;;;16.55;3.00;;;15.80;99.90;;;;;;5059197;28;20044;-71
2022/10/31 12:37:02;;;;;;;14.85;3.05;;;15.90;99.90;;;;;;5058743;28;20157;-71
2022/10/31 12:39:54;;;;;;;20.60;3.85;;;15.90;99.90;;;;;;5065559;28;20032;-71
2022/10/31 12:42:28;;;;;;;25.77;3.53;;;15.80;99.90;;;;;;5052265;28;20040;-71
2022/10/31 12:45:06;;;;;;;17.80;2.95;;;15.90;99.90;;;;;;5053696;28;20054;-71
2022/10/31 12:48:14;;;;;;;16.40;3.10;;;15.80;99.90;;;;;;5053244;28;20060;-71
2022/10/31 12:51:07;;;;;;;11.50;2.58;;;15.80;99.90;;;;;;5053383;28;20025;-72